Date,TemperatureHighF,TemperatureAvgF,TemperatureLowF,DewpointHighF,DewpointAvgF,DewpointLowF,HumidityHigh,HumidityAvg,HumidityLow,PressureMaxIn,PressureMinIn,WindSpeedMaxMPH,WindSpeedAvgMPH,GustSpeedMaxMPH,PrecipitationSumIn
2013-9-1,64.5,56.9,52.0,58.0,-23.8,-47.0,83,15,1,29.92,29.85,24,14,27,0.01
2013-9-2,68.0,61.2,56.9,62.0,-6.0,-44.0,83,27,1,29.93,29.84,22,12,29,0.00
2013-9-3,66.9,60.3,54.5,61.0,19.2,-45.0,83,47,1,29.96,29.89,24,11,29,0.00
2013-9-4,70.6,61.5,55.9,62.0,33.2,-44.0,83,53,1,29.99,29.89,20,8,23,0.01
2013-9-5,71.4,62.8,55.7,60.0,43.3,-44.0,82,57,1,29.97,29.91,17,6,25,0.00
2013-9-6,84.6,70.8,57.7,58.0,52.3,21.0,83,55,24,29.95,29.80,12,5,15,0.00
2013-9-7,81.9,69.5,52.6,60.0,44.1,-46.0,84,49,1,29.82,29.75,22,10,23,0.00
2013-9-8,59.7,54.8,51.3,44.0,-34.1,-47.0,63,6,1,29.84,29.75,21,12,22,0.01
2013-9-9,62.0,55.4,49.6,56.0,-19.3,-48.0,82,18,1,29.79,29.68,29,16,31,0.00
2013-9-10,57.7,56.7,55.1,-43.0,-43.5,-45.0,1,1,1,29.87,29.69,30,16,33,0.00
2013-9-11,61.5,58.0,56.5,54.0,-19.2,-44.0,77,17,1,29.97,29.86,13,7,19,0.00
2013-9-12,64.1,58.4,55.0,57.0,-26.9,-45.0,78,12,1,29.95,29.85,22,9,25,0.04
2013-9-13,68.0,56.4,52.6,60.0,-16.8,-46.0,83,22,1,29.87,29.72,22,11,25,0.00
2013-9-14,67.8,56.7,52.2,61.0,-15.9,-46.0,83,22,1,29.79,29.71,16,8,18,0.01
2013-9-15,65.5,57.3,51.5,58.0,-6.7,-47.0,82,30,1,29.82,29.73,22,12,28,0.01
2013-9-16,68.9,58.6,53.7,60.0,-3.3,-46.0,82,31,1,29.86,29.75,20,8,22,0.01
2013-9-17,68.2,60.7,54.1,58.0,37.3,-45.0,82,57,1,29.84,29.77,25,10,34,0.00
2013-9-18,73.1,64.2,57.5,57.0,51.2,46.0,82,64,42,29.87,29.78,20,7,22,0.00
2013-9-19,73.8,65.0,51.2,58.0,46.3,-47.0,80,56,1,29.81,29.70,18,7,21,0.00
2013-9-20,59.6,55.8,50.4,50.0,-28.7,-48.0,81,11,1,29.82,29.72,21,10,25,0.00
2013-9-21,59.4,57.0,54.2,47.0,-41.1,-45.0,71,3,1,29.86,29.77,22,11,26,0.49
2013-9-22,63.7,58.0,53.8,58.0,48.7,22.0,82,72,28,29.96,29.85,20,7,25,0.00
2013-9-23,71.8,63.6,57.1,63.0,56.0,50.0,81,76,65,29.98,29.89,20,5,23,0.00
2013-9-24,67.8,60.9,57.5,58.0,53.0,46.0,81,75,64,29.94,29.84,26,11,41,0.00
2013-9-25,64.9,58.4,53.7,51.0,46.1,42.0,77,64,53,29.89,29.77,22,8,40,0.00
2013-9-26,68.0,60.7,53.0,50.0,41.9,36.0,66,51,36,29.94,29.79,15,6,19,0.00
2013-9-27,71.6,64.5,58.8,50.0,37.2,28.0,64,37,24,30.05,29.94,18,9,21,0.00
2013-9-28,70.1,62.2,57.0,55.0,45.7,33.0,80,56,33,30.04,29.95,20,8,23,0.00
2013-9-29,66.3,59.0,52.3,60.0,3.2,-46.0,80,32,1,30.07,30.01,15,8,18,0.00
2013-9-30,60.8,58.9,56.3,55.0,-29.1,-44.0,82,11,1,30.03,29.93,16,9,19,0.07